Terminal Aerodrome Forecast
Issued by NWS Bismarck, ND

Home | Current Version | Previous Version | Graphics & Text | Print | Product List | Glossary On
Versions: 1 2 3 4 5 6 7 8 9 10 11 12 13 14 15 16 17 18 19 20 21 22 23
003
FTUS43 KBIS 211722
TAFBIS
TAF
KBIS 211722Z 2118/2218 03007KT P6SM SCT100
      TEMPO 2120/2124 SCT025 BKN100
     FM220100 10010G19KT P6SM BKN100
     FM221000 13016KT P6SM OVC060
     FM221400 14017G23KT P6SM OVC025
     FM221700 15019G27KT P6SM OVC015=

USA.gov is the U.S. government's official web portal to all federal, state and local government web resources and services.